sensor_id;sensor_type;location;lat;lon;timestamp;pressure;altitude;pressure_sealevel;temperature;humidity
21520;BME280;10921;53.614;9.882;2023-08-20T00:00:19;101844.78;;;19.63;98.11
21520;BME280;10921;53.614;9.882;2023-08-20T00:02:46;101820.69;;;19.38;98.46
21520;BME280;10921;53.614;9.882;2023-08-20T00:05:17;101855.50;;;19.49;98.89
21520;BME280;10921;53.614;9.882;2023-08-20T00:07:44;101853.13;;;19.46;98.94
21520;BME280;10921;53.614;9.882;2023-08-20T00:10:11;101843.38;;;19.28;99.26
21520;BME280;10921;53.614;9.882;2023-08-20T00:12:37;101877.19;;;19.32;99.70
21520;BME280;10921;53.614;9.882;2023-08-20T00:15:04;101864.91;;;19.22;99.75
21520;BME280;10921;53.614;9.882;2023-08-20T00:17:36;101881.97;;;19.22;99.93
21520;BME280;10921;53.614;9.882;2023-08-20T00:20:05;101875.72;;;19.14;100.00
21520;BME280;10921;53.614;9.882;2023-08-20T00:22:43;101875.03;;;19.12;99.95
21520;BME280;10921;53.614;9.882;2023-08-20T00:25:13;101887.25;;;19.08;100.00
21520;BME280;10921;53.614;9.882;2023-08-20T00:27:40;101819.69;;;18.67;100.00
21520;BME280;10921;53.614;9.882;2023-08-20T00:30:08;101871.03;;;18.91;100.00
21520;BME280;10921;53.614;9.882;2023-08-20T00:32:36;101879.47;;;18.96;100.00
21520;BME280;10921;53.614;9.882;2023-08-20T00:35:03;101828.66;;;18.59;100.00
21520;BME280;10921;53.614;9.882;2023-08-20T00:37:31;101885.91;;;18.87;100.00
21520;BME280;10921;53.614;9.882;2023-08-20T00:39:58;101885.41;;;18.84;100.00
21520;BME280;10921;53.614;9.882;2023-08-20T00:42:24;101881.53;;;18.78;100.00
21520;BME280;10921;53.614;9.882;2023-08-20T00:44:56;101869.19;;;18.68;100.00
21520;BME280;10921;53.614;9.882;2023-08-20T00:47:22;101881.00;;;18.67;100.00
21520;BME280;10921;53.614;9.882;2023-08-20T00:49:49;101855.31;;;18.46;100.00
21520;BME280;10921;53.614;9.882;2023-08-20T00:52:16;101894.22;;;18.61;100.00
21520;BME280;10921;53.614;9.882;2023-08-20T00:54:47;101875.06;;;18.55;100.00
21520;BME280;10921;53.614;9.882;2023-08-20T00:57:14;101883.34;;;18.53;100.00
21520;BME280;10921;53.614;9.882;2023-08-20T00:59:43;101880.31;;;18.48;100.00
21520;BME280;10921;53.614;9.882;2023-08-20T01:02:10;101866.28;;;18.37;100.00
21520;BME280;10921;53.614;9.882;2023-08-20T01:04:38;101886.38;;;18.42;100.00
21520;BME280;10921;53.614;9.882;2023-08-20T01:07:24;101862.56;;;18.30;100.00
21520;BME280;10921;53.614;9.882;2023-08-20T01:10:07;101852.59;;;18.22;100.00
21520;BME280;10921;53.614;9.882;2023-08-20T01:12:34;101878.81;;;18.46;100.00
21520;BME280;10921;53.614;9.882;2023-08-20T01:15:02;101887.72;;;18.30;100.00
21520;BME280;10921;53.614;9.882;2023-08-20T01:17:29;101893.63;;;18.25;100.00
21520;BME280;10921;53.614;9.882;2023-08-20T01:19:56;101888.03;;;18.19;100.00
21520;BME280;10921;53.614;9.882;2023-08-20T01:28:27;101884.16;;;18.13;100.00
21520;BME280;10921;53.614;9.882;2023-08-20T01:30:55;101892.22;;;18.05;100.00
21520;BME280;10921;53.614;9.882;2023-08-20T01:33:23;101856.91;;;17.82;100.00
21520;BME280;10921;53.614;9.882;2023-08-20T01:35:54;101886.81;;;17.97;100.00
21520;BME280;10921;53.614;9.882;2023-08-20T01:38:21;101896.94;;;17.95;100.00
21520;BME280;10921;53.614;9.882;2023-08-20T01:40:48;101872.56;;;17.79;100.00
21520;BME280;10921;53.614;9.882;2023-08-20T01:43:15;101884.44;;;17.86;100.00
21520;BME280;10921;53.614;9.882;2023-08-20T01:45:42;101891.31;;;17.80;100.00
21520;BME280;10921;53.614;9.882;2023-08-20T01:48:08;101893.16;;;17.80;100.00
21520;BME280;10921;53.614;9.882;2023-08-20T01:50:35;101855.59;;;17.52;100.00
21520;BME280;10921;53.614;9.882;2023-08-20T01:53:02;101893.31;;;17.70;100.00
21520;BME280;10921;53.614;9.882;2023-08-20T01:55:29;101889.41;;;17.73;100.00
21520;BME280;10921;53.614;9.882;2023-08-20T01:57:58;101893.97;;;17.72;100.00
21520;BME280;10921;53.614;9.882;2023-08-20T02:00:24;101891.63;;;17.69;100.00
21520;BME280;10921;53.614;9.882;2023-08-20T02:02:51;101894.31;;;17.69;100.00
21520;BME280;10921;53.614;9.882;2023-08-20T02:05:19;101867.53;;;17.50;100.00
21520;BME280;10921;53.614;9.882;2023-08-20T02:07:46;101889.53;;;17.63;100.00
21520;BME280;10921;53.614;9.882;2023-08-20T02:10:12;101884.69;;;17.67;100.00
21520;BME280;10921;53.614;9.882;2023-08-20T02:12:40;101881.75;;;17.60;100.00
21520;BME280;10921;53.614;9.882;2023-08-20T02:15:07;101881.72;;;17.52;100.00
21520;BME280;10921;53.614;9.882;2023-08-20T02:17:34;101892.69;;;17.58;100.00
21520;BME280;10921;53.614;9.882;2023-08-20T02:20:03;101823.53;;;17.15;100.00
21520;BME280;10921;53.614;9.882;2023-08-20T02:22:36;101830.28;;;17.19;100.00
21520;BME280;10921;53.614;9.882;2023-08-20T02:25:03;101897.91;;;17.52;100.00
21520;BME280;10921;53.614;9.882;2023-08-20T02:27:29;101841.03;;;17.11;100.00
21520;BME280;10921;53.614;9.882;2023-08-20T02:29:56;101890.59;;;17.44;100.00
21520;BME280;10921;53.614;9.882;2023-08-20T02:32:22;101864.19;;;17.22;100.00
21520;BME280;10921;53.614;9.882;2023-08-20T02:34:50;101828.47;;;16.94;100.00
21520;BME280;10921;53.614;9.882;2023-08-20T02:37:17;101870.13;;;17.26;100.00
21520;BME280;10921;53.614;9.882;2023-08-20T02:39:44;101893.13;;;17.38;100.00
21520;BME280;10921;53.614;9.882;2023-08-20T02:42:10;101863.97;;;17.15;100.00
21520;BME280;10921;53.614;9.882;2023-08-20T02:44:37;101894.81;;;17.39;100.00
21520;BME280;10921;53.614;9.882;2023-08-20T02:47:04;101837.28;;;17.04;100.00
21520;BME280;10921;53.614;9.882;2023-08-20T02:49:30;101852.84;;;17.10;100.00
21520;BME280;10921;53.614;9.882;2023-08-20T02:51:57;101883.97;;;17.31;100.00
21520;BME280;10921;53.614;9.882;2023-08-20T02:54:23;101876.19;;;17.28;100.00
21520;BME280;10921;53.614;9.882;2023-08-20T02:56:52;101866.41;;;17.27;100.00
21520;BME280;10921;53.614;9.882;2023-08-20T02:59:19;101880.72;;;17.27;100.00
21520;BME280;10921;53.614;9.882;2023-08-20T03:01:45;101887.66;;;17.30;100.00
21520;BME280;10921;53.614;9.882;2023-08-20T03:04:12;101890.66;;;17.27;100.00
21520;BME280;10921;53.614;9.882;2023-08-20T03:06:39;101854.25;;;16.97;100.00
21520;BME280;10921;53.614;9.882;2023-08-20T03:09:06;101899.56;;;17.19;100.00
21520;BME280;10921;53.614;9.882;2023-08-20T03:11:32;101884.53;;;17.08;100.00
21520;BME280;10921;53.614;9.882;2023-08-20T03:13:59;101887.72;;;17.12;100.00
21520;BME280;10921;53.614;9.882;2023-08-20T03:16:25;101903.75;;;17.13;100.00
21520;BME280;10921;53.614;9.882;2023-08-20T03:18:52;101910.69;;;17.16;100.00
21520;BME280;10921;53.614;9.882;2023-08-20T03:21:18;101907.97;;;17.16;100.00
21520;BME280;10921;53.614;9.882;2023-08-20T03:23:45;101908.97;;;17.15;100.00
21520;BME280;10921;53.614;9.882;2023-08-20T03:26:11;101894.63;;;17.06;100.00
21520;BME280;10921;53.614;9.882;2023-08-20T03:28:38;101904.09;;;17.10;100.00
21520;BME280;10921;53.614;9.882;2023-08-20T03:31:04;101890.53;;;17.02;100.00
21520;BME280;10921;53.614;9.882;2023-08-20T03:33:31;101850.25;;;16.75;100.00
21520;BME280;10921;53.614;9.882;2023-08-20T03:35:57;101865.09;;;16.79;100.00
21520;BME280;10921;53.614;9.882;2023-08-20T03:38:26;101879.78;;;16.84;100.00
21520;BME280;10921;53.614;9.882;2023-08-20T03:40:54;101911.56;;;16.99;100.00
21520;BME280;10921;53.614;9.882;2023-08-20T03:43:21;101898.88;;;16.91;100.00
21520;BME280;10921;53.614;9.882;2023-08-20T03:45:51;101901.44;;;16.93;100.00
21520;BME280;10921;53.614;9.882;2023-08-20T03:48:19;101901.88;;;16.88;100.00
21520;BME280;10921;53.614;9.882;2023-08-20T03:50:45;101896.97;;;16.83;100.00
21520;BME280;10921;53.614;9.882;2023-08-20T03:53:12;101909.22;;;16.96;100.00
21520;BME280;10921;53.614;9.882;2023-08-20T03:55:38;101934.75;;;17.09;100.00
21520;BME280;10921;53.614;9.882;2023-08-20T03:58:05;101916.09;;;16.98;100.00
21520;BME280;10921;53.614;9.882;2023-08-20T04:00:31;101937.09;;;17.12;100.00
21520;BME280;10921;53.614;9.882;2023-08-20T04:02:58;101897.03;;;16.92;100.00
21520;BME280;10921;53.614;9.882;2023-08-20T04:05:24;101930.09;;;17.19;100.00
21520;BME280;10921;53.614;9.882;2023-08-20T04:07:51;101932.84;;;17.28;100.00
21520;BME280;10921;53.614;9.882;2023-08-20T04:10:17;101936.13;;;17.39;100.00
21520;BME280;10921;53.614;9.882;2023-08-20T04:12:44;101933.28;;;17.41;100.00
21520;BME280;10921;53.614;9.882;2023-08-20T04:15:10;101926.84;;;17.42;100.00
21520;BME280;10921;53.614;9.882;2023-08-20T04:17:37;101949.53;;;17.57;100.00
21520;BME280;10921;53.614;9.882;2023-08-20T04:20:04;101933.16;;;17.50;100.00
21520;BME280;10921;53.614;9.882;2023-08-20T04:22:33;101907.97;;;17.42;100.00
21520;BME280;10921;53.614;9.882;2023-08-20T04:25:00;101949.66;;;17.73;100.00
21520;BME280;10921;53.614;9.882;2023-08-20T04:27:31;101936.28;;;17.64;100.00
21520;BME280;10921;53.614;9.882;2023-08-20T04:29:57;101917.16;;;17.57;100.00
21520;BME280;10921;53.614;9.882;2023-08-20T04:32:24;101948.38;;;17.85;100.00
21520;BME280;10921;53.614;9.882;2023-08-20T04:34:50;101949.72;;;17.89;100.00
21520;BME280;10921;53.614;9.882;2023-08-20T04:37:19;101958.19;;;17.95;100.00
21520;BME280;10921;53.614;9.882;2023-08-20T04:39:46;101916.94;;;17.76;100.00
21520;BME280;10921;53.614;9.882;2023-08-20T04:42:12;101957.56;;;18.09;100.00
21520;BME280;10921;53.614;9.882;2023-08-20T04:44:38;101959.47;;;18.16;100.00
21520;BME280;10921;53.614;9.882;2023-08-20T04:47:05;101951.38;;;18.16;100.00
21520;BME280;10921;53.614;9.882;2023-08-20T04:49:31;101932.09;;;18.11;100.00
21520;BME280;10921;53.614;9.882;2023-08-20T04:51:58;101952.41;;;18.32;100.00
21520;BME280;10921;53.614;9.882;2023-08-20T04:54:24;101945.34;;;18.47;100.00
21520;BME280;10921;53.614;9.882;2023-08-20T04:56:51;101927.78;;;18.43;100.00
21520;BME280;10921;53.614;9.882;2023-08-20T04:59:17;101929.47;;;18.52;100.00
21520;BME280;10921;53.614;9.882;2023-08-20T05:01:44;101940.66;;;18.65;100.00
21520;BME280;10921;53.614;9.882;2023-08-20T05:04:11;101873.53;;;18.28;100.00
21520;BME280;10921;53.614;9.882;2023-08-20T05:06:38;101909.88;;;18.58;100.00
21520;BME280;10921;53.614;9.882;2023-08-20T05:09:04;101924.44;;;18.73;100.00
21520;BME280;10921;53.614;9.882;2023-08-20T05:11:31;101900.63;;;18.60;100.00
21520;BME280;10921;53.614;9.882;2023-08-20T05:14:00;101944.91;;;18.92;100.00
21520;BME280;10921;53.614;9.882;2023-08-20T05:16:27;101913.47;;;18.83;100.00
21520;BME280;10921;53.614;9.882;2023-08-20T05:18:53;101917.34;;;18.80;100.00
21520;BME280;10921;53.614;9.882;2023-08-20T05:21:20;101905.19;;;18.84;100.00
21520;BME280;10921;53.614;9.882;2023-08-20T05:23:49;101938.13;;;19.12;100.00
21520;BME280;10921;53.614;9.882;2023-08-20T05:26:16;101927.81;;;19.16;100.00
21520;BME280;10921;53.614;9.882;2023-08-20T05:28:43;101915.63;;;19.20;100.00
21520;BME280;10921;53.614;9.882;2023-08-20T05:31:09;101911.38;;;19.25;100.00
21520;BME280;10921;53.614;9.882;2023-08-20T05:33:37;101847.53;;;18.84;100.00
21520;BME280;10921;53.614;9.882;2023-08-20T05:36:03;101913.06;;;19.35;100.00
21520;BME280;10921;53.614;9.882;2023-08-20T05:38:30;101911.72;;;19.30;100.00
21520;BME280;10921;53.614;9.882;2023-08-20T05:40:57;101896.47;;;19.29;100.00
21520;BME280;10921;53.614;9.882;2023-08-20T05:43:23;101930.63;;;19.47;100.00
21520;BME280;10921;53.614;9.882;2023-08-20T05:45:49;101893.94;;;19.28;100.00
21520;BME280;10921;53.614;9.882;2023-08-20T05:48:16;101940.41;;;19.56;100.00
21520;BME280;10921;53.614;9.882;2023-08-20T05:50:44;101925.88;;;19.41;100.00
21520;BME280;10921;53.614;9.882;2023-08-20T05:53:10;101901.91;;;19.29;100.00
21520;BME280;10921;53.614;9.882;2023-08-20T05:55:38;101876.22;;;19.17;100.00
21520;BME280;10921;53.614;9.882;2023-08-20T05:58:05;101955.44;;;19.75;100.00
21520;BME280;10921;53.614;9.882;2023-08-20T06:00:32;101950.19;;;19.73;100.00
21520;BME280;10921;53.614;9.882;2023-08-20T06:02:58;101955.25;;;19.84;100.00
21520;BME280;10921;53.614;9.882;2023-08-20T06:05:25;101915.19;;;19.63;100.00
21520;BME280;10921;53.614;9.882;2023-08-20T06:07:52;101941.03;;;19.82;100.00
21520;BME280;10921;53.614;9.882;2023-08-20T06:10:18;101895.44;;;19.55;100.00
21520;BME280;10921;53.614;9.882;2023-08-20T06:12:45;101959.25;;;19.96;100.00
21520;BME280;10921;53.614;9.882;2023-08-20T06:15:11;101911.59;;;19.71;100.00
21520;BME280;10921;53.614;9.882;2023-08-20T06:17:38;101947.22;;;19.99;100.00
21520;BME280;10921;53.614;9.882;2023-08-20T06:20:06;101918.28;;;19.91;100.00
21520;BME280;10921;53.614;9.882;2023-08-20T06:22:34;101911.16;;;19.98;100.00
21520;BME280;10921;53.614;9.882;2023-08-20T06:25:01;101951.47;;;20.24;100.00
21520;BME280;10921;53.614;9.882;2023-08-20T06:27:29;101888.47;;;19.99;100.00
21520;BME280;10921;53.614;9.882;2023-08-20T06:29:55;101944.31;;;20.40;100.00
21520;BME280;10921;53.614;9.882;2023-08-20T06:32:23;101954.72;;;20.51;100.00
21520;BME280;10921;53.614;9.882;2023-08-20T06:34:49;101950.34;;;20.50;100.00
21520;BME280;10921;53.614;9.882;2023-08-20T06:37:16;101913.69;;;20.31;100.00
21520;BME280;10921;53.614;9.882;2023-08-20T06:39:42;101960.03;;;20.67;100.00
21520;BME280;10921;53.614;9.882;2023-08-20T06:42:09;101960.84;;;20.76;100.00
21520;BME280;10921;53.614;9.882;2023-08-20T06:44:35;101960.47;;;20.79;100.00
21520;BME280;10921;53.614;9.882;2023-08-20T06:47:02;101962.47;;;20.85;100.00
21520;BME280;10921;53.614;9.882;2023-08-20T06:49:28;101978.78;;;20.99;100.00
21520;BME280;10921;53.614;9.882;2023-08-20T06:51:55;101970.59;;;21.08;100.00
21520;BME280;10921;53.614;9.882;2023-08-20T06:54:23;101954.50;;;21.06;100.00
21520;BME280;10921;53.614;9.882;2023-08-20T06:56:49;101993.13;;;21.31;100.00
21520;BME280;10921;53.614;9.882;2023-08-20T06:59:16;101981.72;;;21.35;100.00
21520;BME280;10921;53.614;9.882;2023-08-20T07:01:43;101991.94;;;21.48;100.00
21520;BME280;10921;53.614;9.882;2023-08-20T07:04:10;101993.91;;;21.54;100.00
21520;BME280;10921;53.614;9.882;2023-08-20T07:06:36;101992.31;;;21.60;100.00
21520;BME280;10921;53.614;9.882;2023-08-20T07:09:03;101993.28;;;21.67;100.00
21520;BME280;10921;53.614;9.882;2023-08-20T07:11:30;101990.16;;;21.70;100.00
21520;BME280;10921;53.614;9.882;2023-08-20T07:13:56;102006.28;;;21.86;99.27
21520;BME280;10921;53.614;9.882;2023-08-20T07:16:23;102006.03;;;21.96;98.62
21520;BME280;10921;53.614;9.882;2023-08-20T07:18:49;101997.31;;;22.00;97.51
21520;BME280;10921;53.614;9.882;2023-08-20T07:21:16;101975.09;;;21.97;97.30
21520;BME280;10921;53.614;9.882;2023-08-20T07:23:42;102004.88;;;22.20;96.49
21520;BME280;10921;53.614;9.882;2023-08-20T07:26:10;102001.66;;;22.31;96.16
21520;BME280;10921;53.614;9.882;2023-08-20T07:28:38;101965.50;;;22.16;94.42
21520;BME280;10921;53.614;9.882;2023-08-20T07:31:24;102015.50;;;22.51;91.82
21520;BME280;10921;53.614;9.882;2023-08-20T07:33:52;102005.19;;;22.61;91.77
21520;BME280;10921;53.614;9.882;2023-08-20T07:36:19;102000.00;;;22.66;90.49
21520;BME280;10921;53.614;9.882;2023-08-20T07:38:48;101995.38;;;22.66;88.32
21520;BME280;10921;53.614;9.882;2023-08-20T07:41:15;101973.03;;;22.50;87.18
21520;BME280;10921;53.614;9.882;2023-08-20T07:43:42;102021.47;;;22.75;87.02
21520;BME280;10921;53.614;9.882;2023-08-20T07:46:09;102011.41;;;22.76;85.76
21520;BME280;10921;53.614;9.882;2023-08-20T07:48:36;101986.94;;;22.61;86.14
21520;BME280;10921;53.614;9.882;2023-08-20T07:51:03;101999.41;;;22.70;87.35
21520;BME280;10921;53.614;9.882;2023-08-20T07:53:30;102015.72;;;22.85;87.58
21520;BME280;10921;53.614;9.882;2023-08-20T07:55:57;102018.09;;;22.95;86.40
21520;BME280;10921;53.614;9.882;2023-08-20T07:58:24;102013.81;;;23.07;84.50
21520;BME280;10921;53.614;9.882;2023-08-20T08:00:50;102022.53;;;23.17;82.60
21520;BME280;10921;53.614;9.882;2023-08-20T08:03:17;102022.56;;;23.24;81.51
21520;BME280;10921;53.614;9.882;2023-08-20T08:05:48;102035.00;;;23.33;80.84
21520;BME280;10921;53.614;9.882;2023-08-20T08:08:15;102035.47;;;23.36;80.95
21520;BME280;10921;53.614;9.882;2023-08-20T08:10:43;102029.59;;;23.39;79.07
21520;BME280;10921;53.614;9.882;2023-08-20T08:13:13;101974.66;;;23.08;77.76
21520;BME280;10921;53.614;9.882;2023-08-20T08:15:40;102029.47;;;23.47;77.86
21520;BME280;10921;53.614;9.882;2023-08-20T08:18:07;102017.47;;;23.42;76.53
21520;BME280;10921;53.614;9.882;2023-08-20T08:20:34;102033.22;;;23.46;75.56
21520;BME280;10921;53.614;9.882;2023-08-20T08:23:01;102021.50;;;23.46;76.89
21520;BME280;10921;53.614;9.882;2023-08-20T08:25:28;102029.22;;;23.42;74.89
21520;BME280;10921;53.614;9.882;2023-08-20T08:27:54;102006.13;;;23.38;75.13
21520;BME280;10921;53.614;9.882;2023-08-20T08:30:26;101999.81;;;23.31;75.41
21520;BME280;10921;53.614;9.882;2023-08-20T08:32:53;102036.75;;;23.62;75.93
21520;BME280;10921;53.614;9.882;2023-08-20T08:35:20;102031.03;;;23.57;75.46
21520;BME280;10921;53.614;9.882;2023-08-20T08:37:46;102040.00;;;23.78;75.34
21520;BME280;10921;53.614;9.882;2023-08-20T08:40:13;102034.19;;;23.88;76.19
21520;BME280;10921;53.614;9.882;2023-08-20T08:42:41;102046.38;;;23.99;74.56
21520;BME280;10921;53.614;9.882;2023-08-20T08:45:09;102036.38;;;24.06;73.05
21520;BME280;10921;53.614;9.882;2023-08-20T08:47:39;102044.81;;;24.17;73.07
21520;BME280;10921;53.614;9.882;2023-08-20T08:50:06;102039.44;;;24.24;74.00
21520;BME280;10921;53.614;9.882;2023-08-20T08:52:35;101987.25;;;23.99;72.03
21520;BME280;10921;53.614;9.882;2023-08-20T08:55:04;101966.72;;;23.97;73.54
21520;BME280;10921;53.614;9.882;2023-08-20T08:57:31;102030.06;;;24.40;73.06
21520;BME280;10921;53.614;9.882;2023-08-20T08:59:58;102028.63;;;24.44;69.91
21520;BME280;10921;53.614;9.882;2023-08-20T09:02:24;102018.13;;;24.47;70.17
21520;BME280;10921;53.614;9.882;2023-08-20T09:04:52;102042.13;;;24.65;71.22
21520;BME280;10921;53.614;9.882;2023-08-20T09:07:18;102038.38;;;24.73;70.77
21520;BME280;10921;53.614;9.882;2023-08-20T09:09:45;102038.38;;;24.79;69.24
21520;BME280;10921;53.614;9.882;2023-08-20T09:12:14;102041.31;;;24.91;68.07
21520;BME280;10921;53.614;9.882;2023-08-20T09:14:49;102038.88;;;25.03;68.06
21520;BME280;10921;53.614;9.882;2023-08-20T09:17:17;102035.72;;;25.12;67.18
21520;BME280;10921;53.614;9.882;2023-08-20T09:19:44;102034.91;;;25.18;66.05
21520;BME280;10921;53.614;9.882;2023-08-20T09:22:12;102020.19;;;25.19;66.25
21520;BME280;10921;53.614;9.882;2023-08-20T09:24:41;102010.31;;;25.25;66.42
21520;BME280;10921;53.614;9.882;2023-08-20T09:27:12;102048.53;;;25.58;64.67
21520;BME280;10921;53.614;9.882;2023-08-20T09:32:17;102037.97;;;26.01;64.42
21520;BME280;10921;53.614;9.882;2023-08-20T09:34:43;102029.06;;;26.25;63.77
21520;BME280;10921;53.614;9.882;2023-08-20T09:37:12;102033.41;;;26.53;61.33
21520;BME280;10921;53.614;9.882;2023-08-20T09:39:39;101970.25;;;26.48;61.06
21520;BME280;10921;53.614;9.882;2023-08-20T09:42:06;102042.03;;;27.19;59.30
21520;BME280;10921;53.614;9.882;2023-08-20T09:44:35;102019.06;;;27.45;58.55
21520;BME280;10921;53.614;9.882;2023-08-20T09:47:21;102033.31;;;27.97;59.97
21520;BME280;10921;53.614;9.882;2023-08-20T09:49:52;102038.34;;;28.18;57.28
21520;BME280;10921;53.614;9.882;2023-08-20T09:52:32;102023.78;;;28.54;57.69
21520;BME280;10921;53.614;9.882;2023-08-20T09:55:17;102029.53;;;28.83;56.74
21520;BME280;10921;53.614;9.882;2023-08-20T09:57:47;102030.41;;;28.95;54.16
21520;BME280;10921;53.614;9.882;2023-08-20T10:00:14;102002.00;;;29.01;53.44
21520;BME280;10921;53.614;9.882;2023-08-20T10:02:42;102023.66;;;29.32;52.66
21520;BME280;10921;53.614;9.882;2023-08-20T10:05:11;101995.44;;;29.25;52.92
21520;BME280;10921;53.614;9.882;2023-08-20T10:07:38;101965.81;;;29.16;52.60
21520;BME280;10921;53.614;9.882;2023-08-20T10:10:07;101995.47;;;29.49;52.92
21520;BME280;10921;53.614;9.882;2023-08-20T10:12:35;102021.13;;;30.13;54.81
21520;BME280;10921;53.614;9.882;2023-08-20T10:15:03;101996.41;;;29.78;51.06
21520;BME280;10921;53.614;9.882;2023-08-20T10:17:33;102012.31;;;29.76;49.85
21520;BME280;10921;53.614;9.882;2023-08-20T10:20:02;102019.84;;;29.68;49.24
21520;BME280;10921;53.614;9.882;2023-08-20T10:22:36;102027.88;;;29.70;50.88
21520;BME280;10921;53.614;9.882;2023-08-20T10:25:10;102011.63;;;29.57;50.81
21520;BME280;10921;53.614;9.882;2023-08-20T10:27:40;102014.84;;;29.54;50.53
21520;BME280;10921;53.614;9.882;2023-08-20T10:30:24;101977.41;;;29.41;50.63
21520;BME280;10921;53.614;9.882;2023-08-20T10:32:52;102009.69;;;29.69;49.99
21520;BME280;10921;53.614;9.882;2023-08-20T10:35:25;102009.66;;;29.81;49.42
21520;BME280;10921;53.614;9.882;2023-08-20T10:38:12;102021.75;;;30.03;49.87
21520;BME280;10921;53.614;9.882;2023-08-20T10:40:58;102007.88;;;30.10;48.99
21520;BME280;10921;53.614;9.882;2023-08-20T10:43:39;101980.97;;;30.00;48.79
21520;BME280;10921;53.614;9.882;2023-08-20T10:46:06;102007.97;;;30.15;47.28
21520;BME280;10921;53.614;9.882;2023-08-20T10:48:38;102022.75;;;30.25;47.05
21520;BME280;10921;53.614;9.882;2023-08-20T10:56:48;102014.81;;;30.40;48.55
21520;BME280;10921;53.614;9.882;2023-08-20T10:59:15;102014.25;;;30.27;47.25
21520;BME280;10921;53.614;9.882;2023-08-20T11:01:44;102014.03;;;30.28;48.71
21520;BME280;10921;53.614;9.882;2023-08-20T11:04:13;101976.53;;;29.99;46.74
21520;BME280;10921;53.614;9.882;2023-08-20T11:06:42;102014.78;;;30.12;47.38
21520;BME280;10921;53.614;9.882;2023-08-20T11:09:09;102023.56;;;29.97;47.50
21520;BME280;10921;53.614;9.882;2023-08-20T11:11:40;102015.28;;;29.86;48.18
21520;BME280;10921;53.614;9.882;2023-08-20T11:14:11;102008.25;;;29.78;48.98
21520;BME280;10921;53.614;9.882;2023-08-20T11:16:40;102014.25;;;29.63;48.62
21520;BME280;10921;53.614;9.882;2023-08-20T11:19:07;102031.09;;;29.79;48.95
21520;BME280;10921;53.614;9.882;2023-08-20T11:21:38;102034.94;;;29.78;48.37
21520;BME280;10921;53.614;9.882;2023-08-20T11:24:05;102027.38;;;29.85;48.79
21520;BME280;10921;53.614;9.882;2023-08-20T11:26:34;102023.78;;;30.07;48.61
21520;BME280;10921;53.614;9.882;2023-08-20T11:29:05;101986.56;;;30.05;47.97
21520;BME280;10921;53.614;9.882;2023-08-20T11:31:32;102021.25;;;30.46;47.69
21520;BME280;10921;53.614;9.882;2023-08-20T11:33:58;102018.50;;;30.58;46.97
21520;BME280;10921;53.614;9.882;2023-08-20T11:36:25;102016.78;;;30.68;46.86
21520;BME280;10921;53.614;9.882;2023-08-20T11:38:53;102022.72;;;30.77;46.57
21520;BME280;10921;53.614;9.882;2023-08-20T11:41:24;102016.81;;;30.85;46.98
21520;BME280;10921;53.614;9.882;2023-08-20T11:43:54;102019.56;;;30.85;47.43
21520;BME280;10921;53.614;9.882;2023-08-20T11:46:21;102007.84;;;30.78;46.32
21520;BME280;10921;53.614;9.882;2023-08-20T11:49:02;102015.81;;;30.91;47.09
21520;BME280;10921;53.614;9.882;2023-08-20T11:51:58;102018.22;;;31.04;47.62
21520;BME280;10921;53.614;9.882;2023-08-20T11:54:25;102014.38;;;31.05;46.61
21520;BME280;10921;53.614;9.882;2023-08-20T11:56:52;102009.25;;;31.26;45.49
21520;BME280;10921;53.614;9.882;2023-08-20T11:59:27;102002.31;;;31.40;44.61
21520;BME280;10921;53.614;9.882;2023-08-20T12:01:59;102000.28;;;31.69;43.68
21520;BME280;10921;53.614;9.882;2023-08-20T12:04:30;102011.19;;;31.80;44.00
21520;BME280;10921;53.614;9.882;2023-08-20T12:09:33;102002.19;;;32.07;43.33
21520;BME280;10921;53.614;9.882;2023-08-20T12:12:00;102005.16;;;32.22;42.16
21520;BME280;10921;53.614;9.882;2023-08-20T12:14:27;101981.41;;;32.21;42.18
21520;BME280;10921;53.614;9.882;2023-08-20T12:16:54;102013.41;;;32.44;41.55
21520;BME280;10921;53.614;9.882;2023-08-20T12:19:22;101994.28;;;32.37;40.78
21520;BME280;10921;53.614;9.882;2023-08-20T12:21:49;102008.25;;;32.53;40.92
21520;BME280;10921;53.614;9.882;2023-08-20T12:24:16;102008.94;;;32.65;41.47
21520;BME280;10921;53.614;9.882;2023-08-20T12:26:43;101994.03;;;32.66;41.09
21520;BME280;10921;53.614;9.882;2023-08-20T12:29:09;102005.53;;;32.58;39.58
21520;BME280;10921;53.614;9.882;2023-08-20T12:31:36;101992.47;;;32.75;39.53
21520;BME280;10921;53.614;9.882;2023-08-20T12:34:02;101999.09;;;32.74;39.55
21520;BME280;10921;53.614;9.882;2023-08-20T12:36:29;101996.72;;;32.61;39.26
21520;BME280;10921;53.614;9.882;2023-08-20T12:38:56;101989.47;;;32.55;39.50
21520;BME280;10921;53.614;9.882;2023-08-20T12:41:23;101973.84;;;32.38;40.36
21520;BME280;10921;53.614;9.882;2023-08-20T12:43:49;101995.06;;;32.60;40.86
21520;BME280;10921;53.614;9.882;2023-08-20T12:46:17;101984.00;;;32.60;40.92
21520;BME280;10921;53.614;9.882;2023-08-20T12:48:43;101979.56;;;32.59;40.65
21520;BME280;10921;53.614;9.882;2023-08-20T12:51:10;101995.72;;;32.72;41.50
21520;BME280;10921;53.614;9.882;2023-08-20T12:53:40;101966.97;;;32.68;39.61
21520;BME280;10921;53.614;9.882;2023-08-20T12:56:06;101985.09;;;32.85;39.29
21520;BME280;10921;53.614;9.882;2023-08-20T12:58:32;101992.22;;;33.08;39.66
21520;BME280;10921;53.614;9.882;2023-08-20T13:00:59;101972.91;;;33.13;38.91
21520;BME280;10921;53.614;9.882;2023-08-20T13:03:26;101992.00;;;33.15;38.56
21520;BME280;10921;53.614;9.882;2023-08-20T13:05:54;101957.69;;;33.16;39.49